Sandstone, Minnesota
Current Conditions -  °F | °C
As of 5:34 PM on Monday 22 Dec 2014 (Local Time) from K04W Reporting Station
Haze Haze  
Wind Chill: 34°   Ceiling: 600
Heat Index: 34°   Visibility: 3mi
Dew Point: 34°   Wind: 0mph
Humidity: 100%   Direction: NA
Pressure: 29.66"   Gusts: NA
Location:  46.13°N, 92.87°W
Report Text: K04W 222334Z AUTO 00000KT 3SM BR BKN006 OVC019 01/01 A2966 RMK AO2
Loading
Personal Weather Stations






























Interactive Weather Map New forecast layout! Learn more

10-Day Weather Forecast

Advertisements
Track Severe Weather on mobile